New Champion — V7GG2 — position and weather

sailwx.info

Track history (hours):
 
Tides and Currents Weather Stations Pressure Air Temp Water Temp Dewpoint Dewpoint Depression Visibility Wind Speed Wind Dir Waves Ship Positions

New Champion

Last reported at 2014-Jul-14 18:24 UTC. Time now 2014-Jul-22 17:29 UTC.
Position N 34°10' W 013°13'.

Length 228 m; draft 11.4 m.

Type: Ship (hazmat cat A). MMSI: 537985031.

Date/timePositionNaut miles runAvg speedWind from/ knotsBaromVisibWave heightAir tempDewpointWater temp
2014-Jul-14 18:24N 34°10' W 013°13'24211.6
2014-Jul-13 21:26N 38°06' W 012°01'1212.1
2014-Jul-13 20:27N 38°18' W 011°57'1311.7
2014-Jul-13 19:18N 38°31' W 011°53'911.4
2014-Jul-13 18:33N 38°39' W 011°51'  
2014-Jul-10 16:33N 50°09' W 001°57'1210.0
2014-Jul-10 15:19N 50°13' W 001°39'1011.7
2014-Jul-10 14:30N 50°15' W 001°24'1213.0
2014-Jul-10 13:33N 50°18' W 001°06'1414.2
2014-Jul-10 12:34N 50°22' W 000°45'3913.0
2014-Jul-10 09:33N 50°33' E 000°15'1211.8
2014-Jul-10 08:33N 50°37' E 000°32'1111.1
2014-Jul-10 07:33N 50°43' E 000°47'1111.4
2014-Jul-10 06:33N 50°50' E 001°01'1512.5
2014-Jul-10 05:23N 51°01' E 001°17'6 7.4
2014-Jul-10 04:34N 51°06' E 001°23'1212.0
2014-Jul-10 03:33N 51°11' E 001°40'1212.2
2014-Jul-10 02:33N 51°21' E 001°51'9 9.0
2014-Jul-10 01:33N 51°24' E 002°04'12 9.0
2014-Jul-10 00:14N 51°21' E 002°23'6 9.2
2014-Jul-09 23:33N 51°23' E 002°32'9 8.8
2014-Jul-09 22:32N 51°24' E 002°46'8 8.5
2014-Jul-09 21:33N 51°25' E 002°60'7 6.9
2014-Jul-09 20:33N 51°24' E 003°11'9 9.1
2014-Jul-09 19:32N 51°25' E 003°26'9 9.1
2014-Jul-09 18:33N 51°26' E 003°40'4 3.6
2014-Jul-09 17:30N 51°24' E 003°44'0 0.3
2014-Jul-09 16:33N 51°24' E 003°44'0 0.1
2014-Jul-09 15:33N 51°24' E 003°44'0 0.0
2014-Jul-09 14:33N 51°24' E 003°44'0 0.0
2014-Jul-09 13:33N 51°24' E 003°44'0 0.1
2014-Jul-09 12:33N 51°24' E 003°44'3 2.6
2014-Jul-09 11:33N 51°22' E 003°46'9 9.1
2014-Jul-09 10:33N 51°26' E 003°59'8 7.7
2014-Jul-09 09:33N 51°23' E 004°10'5 5.1
2014-Jul-09 08:34N 51°21' E 004°17'0 0.0
2014-Jul-09 07:34N 51°21' E 004°17'1 0.6
2014-Jul-09 06:33N 51°21' E 004°18'0 0.4
2014-Jul-09 05:33N 51°20' E 004°18'3 2.8
2014-Jul-09 04:32N 51°18' E 004°20'0 0.0
2014-Jul-09 03:32N 51°18' E 004°20'0 0.0
2014-Jul-09 02:26N 51°18' E 004°20'0 0.0
2014-Jul-09 01:32N 51°18' E 004°20'0 0.0
2014-Jul-09 00:29N 51°18' E 004°20'0 0.0
2014-Jul-08 23:29N 51°18' E 004°20'0 0.0
2014-Jul-08 22:20N 51°18' E 004°20'0 0.0
2014-Jul-08 21:32N 51°18' E 004°20'0 0.0
2014-Jul-08 20:32N 51°18' E 004°20'0 0.0
2014-Jul-08 19:29N 51°18' E 004°20'0 0.0
2014-Jul-08 17:29N 51°18' E 004°20'0 0.0
2014-Jul-08 16:32N 51°18' E 004°20'0 0.0
2014-Jul-08 15:23N 51°18' E 004°20'0 0.0
2014-Jul-08 14:32N 51°18' E 004°20'0 0.0
2014-Jul-08 13:23N 51°18' E 004°20'0 0.0
2014-Jul-08 12:17N 51°18' E 004°20'0 0.0
2014-Jul-08 11:32N 51°18' E 004°20'0 0.0
2014-Jul-08 10:32N 51°18' E 004°20'0 0.0
2014-Jul-08 09:26N 51°18' E 004°20'0 0.0
2014-Jul-08 08:23N 51°18' E 004°20'0 0.0
2014-Jul-08 07:29N 51°18' E 004°20'0 0.0
2014-Jul-08 06:20N 51°18' E 004°20'0 0.0
2014-Jul-08 05:26N 51°18' E 004°20'0 0.0
2014-Jul-08 04:29N 51°18' E 004°20'0 0.0
2014-Jul-08 03:32N 51°18' E 004°20'0 0.0
2014-Jul-08 02:26N 51°18' E 004°20'0 0.0
2014-Jul-08 01:32N 51°18' E 004°20'0 0.0
2014-Jul-08 00:26N 51°18' E 004°20'0 0.0
2014-Jul-07 23:20N 51°18' E 004°20'0 0.0
2014-Jul-07 20:11N 51°18' E 004°20'0 0.0
2014-Jul-07 19:20N 51°17' E 004°20'0 0.0
2014-Jul-07 18:32N 51°18' E 004°20'0 0.0
2014-Jul-07 17:29N 51°18' E 004°20'0 0.0
2014-Jul-07 16:32N 51°18' E 004°20'0 0.0
2014-Jul-07 15:32N 51°18' E 004°20'0 0.0
2014-Jul-07 14:29N 51°18' E 004°20'0 0.0
2014-Jul-07 13:32N 51°18' E 004°20'0 0.0
2014-Jul-07 12:32N 51°18' E 004°20'0 0.0
2014-Jul-07 11:29N 51°18' E 004°20'0 0.0
2014-Jul-07 10:32N 51°18' E 004°20'0 0.0
2014-Jul-07 09:32N 51°18' E 004°20'0 0.0
2014-Jul-07 08:32N 51°18' E 004°20'0 0.0
2014-Jul-07 07:32N 51°18' E 004°20'0 0.0
2014-Jul-07 06:32N 51°18' E 004°20'0 0.0
2014-Jul-07 05:32N 51°18' E 004°20'0 0.0
2014-Jul-07 04:29N 51°18' E 004°20'0 0.0
2014-Jul-07 03:32N 51°18' E 004°20'0 0.0
2014-Jul-07 02:32N 51°18' E 004°20'0 0.0
2014-Jul-07 01:32N 51°18' E 004°20'0 0.0
2014-Jul-07 00:32N 51°18' E 004°20'0 0.0
2014-Jul-06 23:32N 51°18' E 004°20'0 0.0
2014-Jul-06 22:32N 51°18' E 004°20'0 0.0
2014-Jul-06 21:29N 51°18' E 004°20'0 0.0
2014-Jul-06 20:32N 51°18' E 004°20'0 0.0
2014-Jul-06 19:32N 51°18' E 004°20'0 0.0
2014-Jul-06 18:32N 51°18' E 004°20'0 0.0
2014-Jul-06 17:32N 51°18' E 004°20'0 0.0
2014-Jul-06 16:32N 51°18' E 004°20'0 0.0
2014-Jul-06 15:32N 51°18' E 004°20'0 0.0
2014-Jul-06 14:32N 51°18' E 004°20'0 0.0
2014-Jul-06 13:32N 51°18' E 004°20'0 0.0
2014-Jul-06 12:32N 51°18' E 004°20'0 0.0
2014-Jul-06 11:29N 51°18' E 004°20'0 0.0
2014-Jul-06 10:32N 51°18' E 004°20'0 0.0
2014-Jul-06 09:32N 51°18' E 004°20'0 0.0
2014-Jul-06 08:29N 51°18' E 004°20'0 0.0
2014-Jul-06 07:32N 51°18' E 004°20'0 0.0
2014-Jul-06 06:32N 51°18' E 004°20'0 0.0
2014-Jul-06 05:32N 51°18' E 004°20'0 0.0
2014-Jul-06 04:32N 51°18' E 004°20'0 0.0
2014-Jul-06 03:32N 51°18' E 004°20'0 0.0
2014-Jul-06 02:32N 51°18' E 004°20'0 0.0
2014-Jul-06 01:32N 51°18' E 004°20'0 0.0
2014-Jul-06 00:29N 51°18' E 004°20'0 0.0
2014-Jul-05 23:32N 51°18' E 004°20'0 0.0
2014-Jul-05 22:32N 51°18' E 004°20'0 0.0
2014-Jul-05 21:29N 51°18' E 004°20'0 0.0
2014-Jul-05 20:32N 51°18' E 004°20'0 0.0
2014-Jul-05 19:32N 51°18' E 004°20'0 0.0
2014-Jul-05 18:32N 51°18' E 004°20'0 0.0
2014-Jul-05 17:26N 51°18' E 004°20'0 0.0
2014-Jul-05 16:32N 51°18' E 004°20'0 0.0
2014-Jul-05 15:32N 51°18' E 004°20'0 0.0
2014-Jul-05 14:32N 51°18' E 004°20'0 0.0
2014-Jul-05 13:32N 51°18' E 004°20'0 0.0
2014-Jul-05 12:23N 51°18' E 004°20'0 0.0
2014-Jul-05 11:23N 51°18' E 004°20'0 0.0
2014-Jul-05 10:32N 51°18' E 004°20'0 0.0
2014-Jul-05 09:20N 51°18' E 004°20'0 0.0
2014-Jul-05 08:32N 51°18' E 004°20'0 0.0
2014-Jul-05 07:32N 51°18' E 004°20'0 0.0
2014-Jul-05 06:26N 51°18' E 004°20'0 0.0
2014-Jul-05 05:26N 51°18' E 004°20'0 0.0
2014-Jul-05 04:32N 51°18' E 004°20'0 0.0
2014-Jul-05 03:32N 51°18' E 004°20'0 0.0
2014-Jul-05 02:29N 51°18' E 004°20'0 0.0
2014-Jul-05 01:29N 51°18' E 004°20'0 0.0
2014-Jul-05 00:32N 51°18' E 004°20'0 0.0
2014-Jul-04 23:29N 51°18' E 004°20'0 0.0
2014-Jul-04 22:29N 51°18' E 004°20'0 0.0
2014-Jul-04 21:32N 51°18' E 004°20'0 0.0
2014-Jul-04 20:32N 51°18' E 004°20'0 0.0
2014-Jul-04 19:29N 51°18' E 004°20'0 0.0
2014-Jul-04 18:32N 51°18' E 004°20'  
Track history (hours):
 
Tides and Currents Weather Stations Pressure Air Temp Water Temp Dewpoint Dewpoint Depression Visibility Wind Speed Wind Dir Waves Ship Positions

New Champion

Last reported at 2014-Jul-14 18:24 UTC. Time now 2014-Jul-22 17:29 UTC.
Position N 34°10' W 013°13'.

Length 228 m; draft 11.4 m.

Type: Ship (hazmat cat A). MMSI: 537985031.

Date/timePositionNaut miles runAvg speedWind from/ knotsBaromVisibWave heightAir tempDewpointWater temp
2014-Jul-14 18:24N 34°10' W 013°13'24211.6
2014-Jul-13 21:26N 38°06' W 012°01'1212.1
2014-Jul-13 20:27N 38°18' W 011°57'1311.7
2014-Jul-13 19:18N 38°31' W 011°53'911.4
2014-Jul-13 18:33N 38°39' W 011°51'  
2014-Jul-10 16:33N 50°09' W 001°57'1210.0
2014-Jul-10 15:19N 50°13' W 001°39'1011.7
2014-Jul-10 14:30N 50°15' W 001°24'1213.0
2014-Jul-10 13:33N 50°18' W 001°06'1414.2
2014-Jul-10 12:34N 50°22' W 000°45'3913.0
2014-Jul-10 09:33N 50°33' E 000°15'1211.8
2014-Jul-10 08:33N 50°37' E 000°32'1111.1
2014-Jul-10 07:33N 50°43' E 000°47'1111.4
2014-Jul-10 06:33N 50°50' E 001°01'1512.5
2014-Jul-10 05:23N 51°01' E 001°17'6 7.4
2014-Jul-10 04:34N 51°06' E 001°23'1212.0
2014-Jul-10 03:33N 51°11' E 001°40'1212.2
2014-Jul-10 02:33N 51°21' E 001°51'9 9.0
2014-Jul-10 01:33N 51°24' E 002°04'12 9.0
2014-Jul-10 00:14N 51°21' E 002°23'6 9.2
2014-Jul-09 23:33N 51°23' E 002°32'9 8.8
2014-Jul-09 22:32N 51°24' E 002°46'8 8.5
2014-Jul-09 21:33N 51°25' E 002°60'7 6.9
2014-Jul-09 20:33N 51°24' E 003°11'9 9.1
2014-Jul-09 19:32N 51°25' E 003°26'9 9.1
2014-Jul-09 18:33N 51°26' E 003°40'4 3.6
2014-Jul-09 17:30N 51°24' E 003°44'0 0.3
2014-Jul-09 16:33N 51°24' E 003°44'0 0.1
2014-Jul-09 15:33N 51°24' E 003°44'0 0.0
2014-Jul-09 14:33N 51°24' E 003°44'0 0.0
2014-Jul-09 13:33N 51°24' E 003°44'0 0.1
2014-Jul-09 12:33N 51°24' E 003°44'3 2.6
2014-Jul-09 11:33N 51°22' E 003°46'9 9.1
2014-Jul-09 10:33N 51°26' E 003°59'8 7.7
2014-Jul-09 09:33N 51°23' E 004°10'5 5.1
2014-Jul-09 08:34N 51°21' E 004°17'0 0.0
2014-Jul-09 07:34N 51°21' E 004°17'1 0.6
2014-Jul-09 06:33N 51°21' E 004°18'0 0.4
2014-Jul-09 05:33N 51°20' E 004°18'3 2.8
2014-Jul-09 04:32N 51°18' E 004°20'0 0.0
2014-Jul-09 03:32N 51°18' E 004°20'0 0.0
2014-Jul-09 02:26N 51°18' E 004°20'0 0.0
2014-Jul-09 01:32N 51°18' E 004°20'0 0.0
2014-Jul-09 00:29N 51°18' E 004°20'0 0.0
2014-Jul-08 23:29N 51°18' E 004°20'0 0.0
2014-Jul-08 22:20N 51°18' E 004°20'0 0.0
2014-Jul-08 21:32N 51°18' E 004°20'0 0.0
2014-Jul-08 20:32N 51°18' E 004°20'0 0.0
2014-Jul-08 19:29N 51°18' E 004°20'0 0.0
2014-Jul-08 17:29N 51°18' E 004°20'0 0.0
2014-Jul-08 16:32N 51°18' E 004°20'0 0.0
2014-Jul-08 15:23N 51°18' E 004°20'0 0.0
2014-Jul-08 14:32N 51°18' E 004°20'0 0.0
2014-Jul-08 13:23N 51°18' E 004°20'0 0.0
2014-Jul-08 12:17N 51°18' E 004°20'0 0.0
2014-Jul-08 11:32N 51°18' E 004°20'0 0.0
2014-Jul-08 10:32N 51°18' E 004°20'0 0.0
2014-Jul-08 09:26N 51°18' E 004°20'0 0.0
2014-Jul-08 08:23N 51°18' E 004°20'0 0.0
2014-Jul-08 07:29N 51°18' E 004°20'0 0.0
2014-Jul-08 06:20N 51°18' E 004°20'0 0.0
2014-Jul-08 05:26N 51°18' E 004°20'0 0.0
2014-Jul-08 04:29N 51°18' E 004°20'0 0.0
2014-Jul-08 03:32N 51°18' E 004°20'0 0.0
2014-Jul-08 02:26N 51°18' E 004°20'0 0.0
2014-Jul-08 01:32N 51°18' E 004°20'0 0.0
2014-Jul-08 00:26N 51°18' E 004°20'0 0.0
2014-Jul-07 23:20N 51°18' E 004°20'0 0.0
2014-Jul-07 20:11N 51°18' E 004°20'0 0.0
2014-Jul-07 19:20N 51°17' E 004°20'0 0.0
2014-Jul-07 18:32N 51°18' E 004°20'0 0.0
2014-Jul-07 17:29N 51°18' E 004°20'0 0.0
2014-Jul-07 16:32N 51°18' E 004°20'0 0.0
2014-Jul-07 15:32N 51°18' E 004°20'0 0.0
2014-Jul-07 14:29N 51°18' E 004°20'0 0.0
2014-Jul-07 13:32N 51°18' E 004°20'0 0.0
2014-Jul-07 12:32N 51°18' E 004°20'0 0.0
2014-Jul-07 11:29N 51°18' E 004°20'0 0.0
2014-Jul-07 10:32N 51°18' E 004°20'0 0.0
2014-Jul-07 09:32N 51°18' E 004°20'0 0.0
2014-Jul-07 08:32N 51°18' E 004°20'0 0.0
2014-Jul-07 07:32N 51°18' E 004°20'0 0.0
2014-Jul-07 06:32N 51°18' E 004°20'0 0.0
2014-Jul-07 05:32N 51°18' E 004°20'0 0.0
2014-Jul-07 04:29N 51°18' E 004°20'0 0.0
2014-Jul-07 03:32N 51°18' E 004°20'0 0.0
2014-Jul-07 02:32N 51°18' E 004°20'0 0.0
2014-Jul-07 01:32N 51°18' E 004°20'0 0.0
2014-Jul-07 00:32N 51°18' E 004°20'0 0.0
2014-Jul-06 23:32N 51°18' E 004°20'0 0.0
2014-Jul-06 22:32N 51°18' E 004°20'0 0.0
2014-Jul-06 21:29N 51°18' E 004°20'0 0.0
2014-Jul-06 20:32N 51°18' E 004°20'0 0.0
2014-Jul-06 19:32N 51°18' E 004°20'0 0.0
2014-Jul-06 18:32N 51°18' E 004°20'0 0.0
2014-Jul-06 17:32N 51°18' E 004°20'0 0.0
2014-Jul-06 16:32N 51°18' E 004°20'0 0.0
2014-Jul-06 15:32N 51°18' E 004°20'0 0.0
2014-Jul-06 14:32N 51°18' E 004°20'0 0.0
2014-Jul-06 13:32N 51°18' E 004°20'0 0.0
2014-Jul-06 12:32N 51°18' E 004°20'0 0.0
2014-Jul-06 11:29N 51°18' E 004°20'0 0.0
2014-Jul-06 10:32N 51°18' E 004°20'0 0.0
2014-Jul-06 09:32N 51°18' E 004°20'0 0.0
2014-Jul-06 08:29N 51°18' E 004°20'0 0.0
2014-Jul-06 07:32N 51°18' E 004°20'0 0.0
2014-Jul-06 06:32N 51°18' E 004°20'0 0.0
2014-Jul-06 05:32N 51°18' E 004°20'0 0.0
2014-Jul-06 04:32N 51°18' E 004°20'0 0.0
2014-Jul-06 03:32N 51°18' E 004°20'0 0.0
2014-Jul-06 02:32N 51°18' E 004°20'0 0.0
2014-Jul-06 01:32N 51°18' E 004°20'0 0.0
2014-Jul-06 00:29N 51°18' E 004°20'0 0.0
2014-Jul-05 23:32N 51°18' E 004°20'0 0.0
2014-Jul-05 22:32N 51°18' E 004°20'0 0.0
2014-Jul-05 21:29N 51°18' E 004°20'0 0.0
2014-Jul-05 20:32N 51°18' E 004°20'0 0.0
2014-Jul-05 19:32N 51°18' E 004°20'0 0.0
2014-Jul-05 18:32N 51°18' E 004°20'0 0.0
2014-Jul-05 17:26N 51°18' E 004°20'0 0.0
2014-Jul-05 16:32N 51°18' E 004°20'0 0.0
2014-Jul-05 15:32N 51°18' E 004°20'0 0.0
2014-Jul-05 14:32N 51°18' E 004°20'0 0.0
2014-Jul-05 13:32N 51°18' E 004°20'0 0.0
2014-Jul-05 12:23N 51°18' E 004°20'0 0.0
2014-Jul-05 11:23N 51°18' E 004°20'0 0.0
2014-Jul-05 10:32N 51°18' E 004°20'0 0.0
2014-Jul-05 09:20N 51°18' E 004°20'0 0.0
2014-Jul-05 08:32N 51°18' E 004°20'0 0.0
2014-Jul-05 07:32N 51°18' E 004°20'0 0.0
2014-Jul-05 06:26N 51°18' E 004°20'0 0.0
2014-Jul-05 05:26N 51°18' E 004°20'0 0.0
2014-Jul-05 04:32N 51°18' E 004°20'0 0.0
2014-Jul-05 03:32N 51°18' E 004°20'0 0.0
2014-Jul-05 02:29N 51°18' E 004°20'0 0.0
2014-Jul-05 01:29N 51°18' E 004°20'0 0.0
2014-Jul-05 00:32N 51°18' E 004°20'0 0.0
2014-Jul-04 23:29N 51°18' E 004°20'0 0.0
2014-Jul-04 22:29N 51°18' E 004°20'0 0.0
2014-Jul-04 21:32N 51°18' E 004°20'0 0.0
2014-Jul-04 20:32N 51°18' E 004°20'0 0.0
2014-Jul-04 19:29N 51°18' E 004°20'0 0.0
2014-Jul-04 18:32N 51°18' E 004°20'  

Dump ship's entire track history